Time;durP1;ratioP1;P1;durP2;ratioP2;P2;SDS_P1;SDS_P2;PMS_P1;PMS_P2;Temp;Humidity;BMP_temperature;BMP_pressure;BME280_temperature;BME280_humidity;BME280_pressure;Samples;Min_cycle;Max_cycle;Signal;HPM_P1;HPM_P2
2024/01/29 00:01:18;;;;;;;3.38;2.97;;;10.20;77.10;;;;;;4993269;28;20065;-70
2024/01/29 00:03:45;;;;;;;3.58;3.25;;;10.30;77.10;;;;;;5009149;28;20116;-70
2024/01/29 00:06:10;;;;;;;4.07;2.95;;;10.20;77.00;;;;;;5028675;28;20041;-70
2024/01/29 00:08:36;;;;;;;4.53;2.80;;;10.20;77.00;;;;;;5012250;28;20033;-70
2024/01/29 00:11:02;;;;;;;3.88;2.55;;;10.20;77.10;;;;;;5012183;28;20054;-70
2024/01/29 00:13:27;;;;;;;3.05;2.55;;;10.20;77.10;;;;;;5010176;28;20095;-70
2024/01/29 00:15:53;;;;;;;4.28;2.65;;;10.20;77.20;;;;;;4994969;28;20544;-70
2024/01/29 00:18:19;;;;;;;3.25;2.67;;;10.20;77.20;;;;;;4993387;28;20046;-70
2024/01/29 00:20:44;;;;;;;4.03;3.08;;;10.20;77.20;;;;;;5013315;28;20042;-70
2024/01/29 00:23:10;;;;;;;2.90;2.60;;;10.30;77.30;;;;;;4996665;28;20653;-70
2024/01/29 00:25:35;;;;;;;3.05;2.65;;;10.20;77.20;;;;;;4984042;28;20072;-70
2024/01/29 00:28:02;;;;;;;2.65;2.35;;;10.20;77.20;;;;;;5026844;28;20537;-70
2024/01/29 00:30:28;;;;;;;5.60;3.05;;;10.30;77.30;;;;;;5027911;28;20041;-70
2024/01/29 00:32:54;;;;;;;3.97;2.70;;;10.20;77.20;;;;;;5016507;28;20049;-70
2024/01/29 00:35:19;;;;;;;6.50;2.90;;;10.20;77.20;;;;;;5013447;28;20042;-70
2024/01/29 00:37:45;;;;;;;4.22;2.53;;;10.30;77.20;;;;;;5013613;28;20045;-70
2024/01/29 00:40:11;;;;;;;2.70;2.50;;;10.20;77.10;;;;;;4989291;28;20092;-70
2024/01/29 00:42:37;;;;;;;5.57;3.03;;;10.20;77.30;;;;;;5012384;28;20505;-70
2024/01/29 00:45:03;;;;;;;4.35;2.50;;;10.30;77.30;;;;;;5015655;28;20044;-70
2024/01/29 00:47:28;;;;;;;3.88;3.13;;;10.20;77.20;;;;;;4998784;28;20037;-70
2024/01/29 00:49:54;;;;;;;2.70;2.38;;;10.20;77.20;;;;;;5032733;28;20108;-70
2024/01/29 00:52:20;;;;;;;3.75;2.85;;;10.20;77.20;;;;;;5015713;28;20072;-70
2024/01/29 00:54:46;;;;;;;3.55;3.08;;;10.20;77.20;;;;;;5012129;28;20056;-70
2024/01/29 00:57:15;;;;;;;3.15;2.85;;;10.20;77.20;;;;;;4995761;28;20033;-70
2024/01/29 00:59:41;;;;;;;3.05;2.72;;;10.20;77.30;;;;;;4997187;28;20095;-70
2024/01/29 01:02:07;;;;;;;3.40;2.70;;;10.20;77.20;;;;;;5010467;28;20045;-70
2024/01/29 01:04:33;;;;;;;3.25;2.95;;;10.20;77.20;;;;;;5029739;28;20034;-70
2024/01/29 01:06:58;;;;;;;2.70;2.38;;;10.20;77.30;;;;;;5009875;28;20076;-70
2024/01/29 01:09:24;;;;;;;4.35;2.55;;;10.20;77.30;;;;;;5013320;28;20045;-71
2024/01/29 01:11:49;;;;;;;4.70;2.95;;;10.20;77.30;;;;;;5028672;28;20103;-70
2024/01/29 01:14:15;;;;;;;3.35;2.70;;;10.20;77.30;;;;;;5014587;28;20049;-70
2024/01/29 01:16:41;;;;;;;3.58;2.55;;;10.20;77.30;;;;;;5014605;28;20525;-70
2024/01/29 01:19:06;;;;;;;4.03;3.00;;;10.20;77.30;;;;;;5004882;28;20037;-70
2024/01/29 01:21:32;;;;;;;2.60;2.40;;;10.30;77.30;;;;;;5007817;28;20038;-70
2024/01/29 01:23:57;;;;;;;4.03;2.60;;;10.20;77.30;;;;;;5013776;28;20046;-70
2024/01/29 01:26:23;;;;;;;4.68;3.20;;;10.20;77.30;;;;;;5030145;28;20041;-70
2024/01/29 01:28:49;;;;;;;3.33;2.80;;;10.20;77.30;;;;;;5013658;28;20468;-70
2024/01/29 01:31:15;;;;;;;3.55;3.00;;;10.20;77.30;;;;;;5032968;28;20049;-70
2024/01/29 01:33:41;;;;;;;3.45;2.72;;;10.20;77.30;;;;;;4998098;28;20404;-70
2024/01/29 01:36:06;;;;;;;3.38;3.03;;;10.20;77.30;;;;;;5012192;28;20041;-70
2024/01/29 01:38:32;;;;;;;3.30;2.72;;;10.20;77.30;;;;;;5012861;28;20039;-70
2024/01/29 01:40:58;;;;;;;3.15;2.60;;;10.20;77.30;;;;;;5029547;28;20045;-70
2024/01/29 01:43:24;;;;;;;2.97;2.67;;;10.20;77.30;;;;;;5007990;28;20387;-70
2024/01/29 01:46:04;;;;;;;2.95;2.65;;;10.20;77.30;;;;;;5014488;28;20045;-70
2024/01/29 01:48:34;;;;;;;5.25;3.20;;;10.20;77.30;;;;;;5029383;28;20417;-70
2024/01/29 01:51:00;;;;;;;3.85;2.70;;;10.20;77.30;;;;;;4996448;28;20320;-70
2024/01/29 01:53:26;;;;;;;3.95;2.85;;;10.20;77.30;;;;;;5008269;28;20067;-70
2024/01/29 01:55:52;;;;;;;4.15;3.08;;;10.20;77.30;;;;;;4982316;28;20402;-70
2024/01/29 01:58:18;;;;;;;4.07;3.00;;;10.20;77.40;;;;;;5014069;28;20038;-70
2024/01/29 02:00:44;;;;;;;3.67;2.58;;;10.20;77.40;;;;;;5014304;28;20055;-70
2024/01/29 02:03:09;;;;;;;3.28;2.80;;;10.30;78.20;;;;;;4995182;28;20034;-70
2024/01/29 02:05:36;;;;;;;4.45;2.67;;;10.20;77.40;;;;;;5014180;28;20037;-70
2024/01/29 02:08:01;;;;;;;4.68;2.72;;;10.30;77.50;;;;;;4980502;28;20401;-70
2024/01/29 02:10:27;;;;;;;5.40;2.78;;;10.20;77.50;;;;;;5012989;28;20034;-70
2024/01/29 02:12:53;;;;;;;3.38;3.08;;;10.20;77.50;;;;;;5025247;28;20033;-70
2024/01/29 02:15:19;;;;;;;2.53;2.20;;;10.30;77.60;;;;;;5030825;28;20037;-70
2024/01/29 02:17:44;;;;;;;4.00;2.42;;;10.20;77.60;;;;;;4995310;28;20065;-70
2024/01/29 02:20:10;;;;;;;4.43;3.08;;;10.20;77.50;;;;;;5010195;28;20046;-70
2024/01/29 02:22:44;;;;;;;2.78;2.55;;;10.20;77.50;;;;;;5014328;28;20405;-70
2024/01/29 02:25:09;;;;;;;3.58;2.83;;;10.30;77.60;;;;;;5032716;28;20428;-70
2024/01/29 02:27:35;;;;;;;3.05;2.72;;;10.20;77.60;;;;;;5007667;28;20041;-70
2024/01/29 02:30:01;;;;;;;3.30;2.83;;;10.20;77.60;;;;;;5010378;28;20163;-70
2024/01/29 02:32:27;;;;;;;4.25;3.22;;;10.20;77.60;;;;;;5012994;28;20037;-70
2024/01/29 02:34:52;;;;;;;4.72;2.80;;;10.20;77.60;;;;;;4994599;28;20045;-70
2024/01/29 02:37:18;;;;;;;4.03;3.00;;;10.30;77.70;;;;;;5010331;28;20042;-70
2024/01/29 02:39:43;;;;;;;4.82;2.88;;;10.20;77.60;;;;;;5029255;28;20032;-70
2024/01/29 02:42:09;;;;;;;3.50;2.97;;;10.20;77.70;;;;;;5012456;28;20072;-70
2024/01/29 02:44:35;;;;;;;4.45;2.95;;;10.30;77.90;;;;;;5013028;28;20199;-70
2024/01/29 02:47:00;;;;;;;3.90;2.78;;;10.20;77.80;;;;;;4990542;28;20037;-70
2024/01/29 02:49:26;;;;;;;3.42;2.83;;;10.20;77.70;;;;;;5012577;28;20041;-70
2024/01/29 02:51:51;;;;;;;4.32;2.60;;;10.20;77.80;;;;;;5009345;28;20046;-70
2024/01/29 02:54:17;;;;;;;3.40;2.80;;;10.30;77.70;;;;;;5011867;28;20041;-70
2024/01/29 02:56:43;;;;;;;3.70;3.40;;;10.20;77.70;;;;;;5009461;28;20050;-70
2024/01/29 02:59:08;;;;;;;3.75;2.85;;;10.20;77.70;;;;;;4976096;28;20033;-70
2024/01/29 03:01:34;;;;;;;3.88;2.85;;;10.20;77.70;;;;;;5011694;28;20112;-70
2024/01/29 03:03:59;;;;;;;2.70;2.42;;;10.20;77.70;;;;;;5012561;28;20052;-70
2024/01/29 03:06:25;;;;;;;4.40;2.85;;;10.20;77.70;;;;;;5029281;28;20088;-70
2024/01/29 03:08:51;;;;;;;3.75;2.97;;;10.20;77.70;;;;;;4996988;28;20041;-70
2024/01/29 03:11:17;;;;;;;2.72;2.53;;;10.20;77.80;;;;;;4996225;28;20044;-70
2024/01/29 03:13:43;;;;;;;4.18;2.90;;;10.20;77.80;;;;;;5018411;28;20029;-70
2024/01/29 03:16:09;;;;;;;2.92;2.63;;;10.20;77.80;;;;;;5009797;28;20053;-70
2024/01/29 03:18:35;;;;;;;3.03;2.78;;;10.20;77.80;;;;;;5005105;28;20140;-70
2024/01/29 03:21:02;;;;;;;2.92;2.63;;;10.20;78.50;;;;;;5012772;28;20347;-70
2024/01/29 03:23:27;;;;;;;3.92;3.08;;;10.30;77.90;;;;;;5013820;28;20041;-70
2024/01/29 03:25:53;;;;;;;4.13;2.80;;;10.20;77.80;;;;;;5012573;28;20570;-70
2024/01/29 03:28:18;;;;;;;4.22;2.58;;;10.20;77.70;;;;;;5002522;28;20129;-70
2024/01/29 03:30:44;;;;;;;3.80;3.00;;;10.20;77.70;;;;;;5006427;28;20042;-70
2024/01/29 03:33:10;;;;;;;2.58;2.38;;;10.30;77.80;;;;;;5012579;28;20084;-70
2024/01/29 03:35:35;;;;;;;4.38;3.03;;;10.20;77.80;;;;;;5005646;28;20088;-70
2024/01/29 03:38:01;;;;;;;3.33;2.83;;;10.30;77.90;;;;;;5011524;28;20037;-70
2024/01/29 03:40:26;;;;;;;3.90;2.78;;;10.20;77.90;;;;;;4994616;28;20038;-70
2024/01/29 03:42:52;;;;;;;3.30;2.80;;;10.20;77.90;;;;;;5008810;28;20092;-70
2024/01/29 03:45:18;;;;;;;4.95;3.30;;;10.20;77.90;;;;;;5009225;28;20512;-70
2024/01/29 03:47:43;;;;;;;3.03;2.70;;;10.20;77.80;;;;;;5011835;28;20555;-70
2024/01/29 03:50:10;;;;;;;2.92;2.63;;;10.20;78.60;;;;;;5013140;28;20045;-70
2024/01/29 03:52:35;;;;;;;4.15;3.30;;;10.20;77.90;;;;;;5012180;28;20067;-70
2024/01/29 03:55:01;;;;;;;2.90;2.70;;;10.20;77.90;;;;;;4995510;28;20235;-70
2024/01/29 03:57:26;;;;;;;3.88;2.83;;;10.20;77.80;;;;;;5009604;28;20048;-70
2024/01/29 03:59:56;;;;;;;2.85;2.53;;;10.20;77.80;;;;;;4998415;28;20042;-70
2024/01/29 04:02:22;;;;;;;3.47;2.60;;;10.20;77.80;;;;;;4999240;28;20095;-70
2024/01/29 04:04:48;;;;;;;2.60;2.40;;;10.20;77.90;;;;;;5014310;28;20113;-70
2024/01/29 04:07:15;;;;;;;3.25;2.78;;;10.20;77.90;;;;;;5012203;28;20494;-70
2024/01/29 04:09:40;;;;;;;3.33;3.00;;;10.20;78.60;;;;;;5027590;28;20079;-70
2024/01/29 04:12:06;;;;;;;3.25;2.95;;;10.20;77.90;;;;;;5015471;28;20045;-70
2024/01/29 04:14:32;;;;;;;3.33;2.95;;;10.20;77.90;;;;;;5015562;28;20045;-70
2024/01/29 04:16:57;;;;;;;3.55;2.72;;;10.20;77.90;;;;;;5032759;28;20062;-70
2024/01/29 04:19:23;;;;;;;4.15;3.75;;;10.20;77.90;;;;;;5002199;28;20056;-70
2024/01/29 04:21:48;;;;;;;3.60;3.08;;;10.20;77.80;;;;;;5015712;28;20045;-70
2024/01/29 04:24:15;;;;;;;3.45;3.08;;;10.20;77.80;;;;;;5012323;28;20073;-70
2024/01/29 04:26:41;;;;;;;3.45;3.03;;;10.20;77.70;;;;;;5014396;28;20049;-70
2024/01/29 04:29:08;;;;;;;3.53;2.90;;;10.20;77.80;;;;;;5014170;28;20060;-70
2024/01/29 04:31:35;;;;;;;3.28;2.97;;;10.20;77.90;;;;;;5031920;28;20049;-70
2024/01/29 04:34:00;;;;;;;3.97;2.90;;;10.20;77.80;;;;;;5018064;28;20507;-71
2024/01/29 04:36:26;;;;;;;3.75;3.17;;;10.20;77.70;;;;;;5030497;28;20076;-70
2024/01/29 04:38:52;;;;;;;3.22;2.92;;;10.20;77.70;;;;;;5014306;28;20041;-70
2024/01/29 04:41:21;;;;;;;4.60;3.58;;;10.20;77.80;;;;;;4981366;28;20473;-70
2024/01/29 04:43:46;;;;;;;4.18;3.13;;;10.20;77.80;;;;;;5014373;28;20041;-70
2024/01/29 04:46:12;;;;;;;3.90;3.10;;;10.20;77.80;;;;;;5008616;28;20404;-70
2024/01/29 04:48:39;;;;;;;3.13;2.78;;;10.20;77.90;;;;;;5031279;28;20427;-70
2024/01/29 04:51:05;;;;;;;2.92;2.63;;;10.20;77.80;;;;;;4999157;28;20111;-70
2024/01/29 04:53:31;;;;;;;4.30;3.10;;;10.20;77.80;;;;;;5013957;28;20045;-70
2024/01/29 04:55:57;;;;;;;4.55;2.67;;;10.20;77.80;;;;;;4999319;28;20092;-70
2024/01/29 04:58:22;;;;;;;3.65;3.00;;;10.20;77.80;;;;;;5014680;28;20033;-70
2024/01/29 05:00:48;;;;;;;2.78;2.58;;;10.20;77.80;;;;;;5013805;28;20477;-70
2024/01/29 05:03:13;;;;;;;3.53;3.22;;;10.20;77.80;;;;;;4982911;28;20061;-70
2024/01/29 05:05:39;;;;;;;3.70;3.30;;;10.20;77.90;;;;;;5031188;28;20043;-70
2024/01/29 05:08:05;;;;;;;2.90;2.60;;;10.20;77.80;;;;;;5015133;28;20049;-70
2024/01/29 05:10:31;;;;;;;3.90;3.50;;;10.20;77.80;;;;;;5013786;28;20088;-70
2024/01/29 05:12:56;;;;;;;5.13;3.10;;;10.20;77.90;;;;;;5013463;28;20053;-70
2024/01/29 05:15:22;;;;;;;3.78;3.08;;;10.20;77.90;;;;;;5014269;28;20037;-70
2024/01/29 05:17:48;;;;;;;3.42;3.10;;;10.20;77.80;;;;;;5014689;28;20508;-70
2024/01/29 05:20:13;;;;;;;3.22;2.92;;;10.20;77.80;;;;;;5014449;28;20040;-70
2024/01/29 05:22:42;;;;;;;3.38;2.90;;;10.10;77.70;;;;;;5015735;28;20053;-70
2024/01/29 05:25:07;;;;;;;3.17;2.88;;;10.10;77.70;;;;;;4978386;28;20072;-70
2024/01/29 05:27:33;;;;;;;4.60;3.15;;;10.10;77.70;;;;;;4995401;28;20095;-70
2024/01/29 05:29:58;;;;;;;3.25;2.95;;;10.10;77.70;;;;;;4998066;28;20057;-70
2024/01/29 05:32:24;;;;;;;3.53;3.22;;;10.10;77.60;;;;;;5014641;28;20044;-70
2024/01/29 05:34:50;;;;;;;3.42;3.10;;;10.10;77.70;;;;;;5012946;28;20412;-70
2024/01/29 05:37:15;;;;;;;3.28;2.97;;;10.10;77.70;;;;;;5012053;28;20041;-70
2024/01/29 05:39:41;;;;;;;3.15;2.95;;;10.10;77.80;;;;;;5014631;28;20048;-70
2024/01/29 05:42:07;;;;;;;3.80;2.70;;;10.10;77.80;;;;;;5013061;28;20045;-70
2024/01/29 05:44:32;;;;;;;5.05;3.15;;;10.10;77.80;;;;;;5013941;28;20044;-70
2024/01/29 05:46:58;;;;;;;3.78;3.13;;;10.20;77.90;;;;;;5013580;28;20124;-70
2024/01/29 05:49:24;;;;;;;3.42;2.97;;;10.10;77.70;;;;;;5015981;28;20492;-70
2024/01/29 05:51:49;;;;;;;4.20;3.80;;;10.10;77.90;;;;;;5012708;28;20060;-70
2024/01/29 05:54:15;;;;;;;3.40;3.10;;;10.10;77.80;;;;;;5014722;28;20454;-70
2024/01/29 05:56:42;;;;;;;3.20;2.90;;;10.10;78.50;;;;;;5012645;28;20121;-70
2024/01/29 05:59:08;;;;;;;3.85;2.97;;;10.10;77.70;;;;;;5020769;28;20037;-70
2024/01/29 06:01:34;;;;;;;4.45;2.83;;;10.10;77.80;;;;;;5012769;28;20052;-70
2024/01/29 06:04:00;;;;;;;4.45;3.00;;;10.10;77.90;;;;;;5013958;28;20044;-70
2024/01/29 06:06:27;;;;;;;3.17;2.88;;;10.10;77.90;;;;;;4995614;28;20037;-70
2024/01/29 06:08:53;;;;;;;4.22;3.17;;;10.10;77.90;;;;;;4997959;28;20045;-70
2024/01/29 06:11:19;;;;;;;3.38;3.08;;;10.10;77.90;;;;;;4992469;28;20512;-70
2024/01/29 06:13:45;;;;;;;3.45;3.13;;;10.10;77.90;;;;;;5029139;28;20056;-70
2024/01/29 06:16:11;;;;;;;4.47;2.70;;;10.10;77.90;;;;;;5013932;28;20037;-70
2024/01/29 06:18:37;;;;;;;4.60;3.13;;;10.10;77.90;;;;;;5010496;28;20037;-70
2024/01/29 06:21:03;;;;;;;4.18;3.17;;;10.10;77.90;;;;;;4997765;28;20396;-70
2024/01/29 06:23:29;;;;;;;3.83;2.92;;;10.10;77.90;;;;;;5012990;28;20045;-70
2024/01/29 06:25:54;;;;;;;4.20;2.83;;;10.10;77.90;;;;;;5013927;28;20041;-70
2024/01/29 06:28:20;;;;;;;2.88;2.65;;;10.10;77.90;;;;;;5011290;28;20111;-70
2024/01/29 06:30:47;;;;;;;3.42;2.58;;;10.10;77.90;;;;;;5012605;28;20057;-70
2024/01/29 06:33:12;;;;;;;3.08;2.78;;;10.10;77.90;;;;;;5012662;28;20041;-70
2024/01/29 06:35:38;;;;;;;3.30;3.00;;;10.10;77.90;;;;;;5010276;28;20037;-70
2024/01/29 06:38:04;;;;;;;3.78;2.58;;;10.10;78.00;;;;;;5028300;28;20044;-69
2024/01/29 06:40:29;;;;;;;4.28;3.75;;;10.10;78.00;;;;;;5013100;28;20044;-69
2024/01/29 06:42:58;;;;;;;3.10;2.80;;;10.10;78.00;;;;;;5014053;28;20037;-69
2024/01/29 06:45:24;;;;;;;3.05;2.72;;;10.10;78.00;;;;;;5005922;28;20113;-69
2024/01/29 06:47:49;;;;;;;3.75;2.95;;;10.10;78.00;;;;;;5004299;28;20132;-69
2024/01/29 06:50:15;;;;;;;4.40;2.95;;;10.10;78.10;;;;;;5013862;28;20124;-69
2024/01/29 06:52:40;;;;;;;3.30;2.88;;;10.10;78.10;;;;;;5029257;28;20045;-69
2024/01/29 06:55:06;;;;;;;2.97;2.75;;;10.10;78.10;;;;;;5010734;28;20276;-69
2024/01/29 06:57:32;;;;;;;3.30;2.90;;;10.10;78.20;;;;;;5014056;28;20041;-69
2024/01/29 06:59:57;;;;;;;3.60;3.00;;;10.10;78.20;;;;;;5011373;28;20034;-69
2024/01/29 07:02:23;;;;;;;3.20;2.90;;;10.00;78.10;;;;;;5012508;28;20397;-70
2024/01/29 07:04:49;;;;;;;4.43;3.17;;;10.10;78.20;;;;;;5013042;28;20029;-69
2024/01/29 07:07:15;;;;;;;5.75;3.72;;;10.10;78.00;;;;;;5029795;28;20489;-69
2024/01/29 07:09:40;;;;;;;4.65;3.40;;;10.00;77.90;;;;;;5013180;28;20057;-69
2024/01/29 07:12:07;;;;;;;3.45;2.70;;;10.00;77.90;;;;;;5009704;28;20121;-69
2024/01/29 07:14:33;;;;;;;4.07;3.70;;;10.00;78.00;;;;;;5005451;28;20095;-69
2024/01/29 07:16:59;;;;;;;2.92;2.72;;;10.00;78.10;;;;;;5011884;28;20053;-69
2024/01/29 07:19:33;;;;;;;4.57;3.38;;;10.00;78.10;;;;;;5013332;28;20037;-69
2024/01/29 07:21:58;;;;;;;4.05;3.55;;;10.00;78.10;;;;;;5030033;28;20045;-69
2024/01/29 07:24:24;;;;;;;6.00;3.90;;;10.10;78.20;;;;;;5013065;28;20124;-69
2024/01/29 07:26:50;;;;;;;4.45;3.70;;;10.00;78.10;;;;;;5012780;28;20527;-69
2024/01/29 07:29:15;;;;;;;3.45;3.15;;;10.00;78.00;;;;;;4980069;28;20065;-69
2024/01/29 07:31:41;;;;;;;3.38;2.90;;;10.10;78.10;;;;;;5012437;28;20129;-69
2024/01/29 07:34:07;;;;;;;3.97;3.58;;;10.00;78.10;;;;;;4995398;28;20061;-69
2024/01/29 07:36:32;;;;;;;3.30;3.00;;;10.00;78.20;;;;;;5010958;28;20460;-69
2024/01/29 07:38:58;;;;;;;3.97;2.95;;;10.10;78.20;;;;;;4995789;28;20072;-69
2024/01/29 07:41:23;;;;;;;6.38;3.60;;;10.10;78.20;;;;;;5012597;28;20234;-69
2024/01/29 07:43:49;;;;;;;3.45;3.15;;;10.00;78.10;;;;;;5012775;28;20037;-69
2024/01/29 07:46:15;;;;;;;6.03;3.28;;;10.10;79.00;;;;;;5028164;28;20045;-69
2024/01/29 07:48:41;;;;;;;3.80;3.40;;;10.10;78.30;;;;;;5027086;28;20073;-69
2024/01/29 07:51:07;;;;;;;3.83;3.42;;;10.10;78.30;;;;;;4996928;28;20107;-69
2024/01/29 07:53:32;;;;;;;3.40;3.08;;;10.00;78.30;;;;;;5006776;28;20477;-69
2024/01/29 07:55:58;;;;;;;3.67;3.10;;;10.10;78.40;;;;;;5005996;28;20076;-69
2024/01/29 07:58:24;;;;;;;4.25;3.50;;;10.00;78.30;;;;;;5028425;28;20041;-69
2024/01/29 08:00:50;;;;;;;3.92;3.47;;;10.00;78.30;;;;;;5012137;28;20072;-69
2024/01/29 08:03:15;;;;;;;4.10;3.65;;;10.10;78.40;;;;;;5011587;28;20144;-69
2024/01/29 08:05:41;;;;;;;4.13;3.72;;;10.10;78.50;;;;;;5027988;28;20113;-69
2024/01/29 08:08:07;;;;;;;3.70;3.40;;;10.10;78.40;;;;;;4995146;28;20052;-69
2024/01/29 08:10:33;;;;;;;3.60;2.97;;;10.10;78.40;;;;;;5009850;28;20052;-69
2024/01/29 08:12:59;;;;;;;3.92;3.53;;;10.10;78.50;;;;;;5026834;28;20056;-69
2024/01/29 08:15:28;;;;;;;2.92;2.72;;;10.10;78.50;;;;;;5012454;28;20045;-69
2024/01/29 08:17:55;;;;;;;4.78;3.90;;;10.10;78.50;;;;;;5011046;28;20103;-69
2024/01/29 08:20:22;;;;;;;3.75;3.45;;;10.10;78.50;;;;;;5008067;28;20046;-69
2024/01/29 08:22:47;;;;;;;3.65;3.35;;;10.10;78.50;;;;;;5013427;28;20053;-69
2024/01/29 08:25:13;;;;;;;4.60;3.45;;;10.10;78.50;;;;;;5011553;28;20511;-69
2024/01/29 08:27:38;;;;;;;3.58;3.25;;;10.10;78.50;;;;;;5012158;28;20120;-69
2024/01/29 08:30:05;;;;;;;4.05;3.65;;;10.10;78.60;;;;;;4995265;28;20057;-69
2024/01/29 08:32:30;;;;;;;5.55;3.08;;;10.10;78.60;;;;;;5012272;28;20041;-69
2024/01/29 08:34:56;;;;;;;3.83;3.50;;;10.10;79.30;;;;;;5011865;28;20072;-69
2024/01/29 08:37:21;;;;;;;5.10;3.50;;;10.10;78.60;;;;;;4995093;28;20073;-69
2024/01/29 08:39:47;;;;;;;3.92;3.53;;;10.10;78.60;;;;;;5011589;28;20134;-69
2024/01/29 08:42:13;;;;;;;3.88;3.55;;;10.10;78.70;;;;;;5028617;28;20095;-69
2024/01/29 08:44:38;;;;;;;3.63;3.30;;;10.10;78.70;;;;;;5009451;28;20033;-69
2024/01/29 08:47:04;;;;;;;4.55;3.30;;;10.10;78.80;;;;;;4999228;28;20041;-69
2024/01/29 08:49:30;;;;;;;4.07;3.75;;;10.10;78.70;;;;;;5031980;28;20455;-69
2024/01/29 08:51:55;;;;;;;3.95;3.50;;;10.10;78.80;;;;;;5016254;28;20535;-69
2024/01/29 08:54:21;;;;;;;4.47;3.58;;;10.10;78.80;;;;;;5012777;28;20042;-69
2024/01/29 08:56:48;;;;;;;3.88;3.55;;;10.10;78.80;;;;;;4976094;28;20041;-69
2024/01/29 08:59:19;;;;;;;3.72;3.38;;;10.10;78.80;;;;;;5015563;28;20451;-69
2024/01/29 09:01:44;;;;;;;4.13;3.60;;;10.10;78.90;;;;;;5032569;28;20045;-69
2024/01/29 09:04:10;;;;;;;5.88;3.10;;;10.10;78.90;;;;;;5032153;28;20087;-69
2024/01/29 09:06:36;;;;;;;4.70;3.85;;;10.10;78.90;;;;;;5016088;28;20045;-69
2024/01/29 09:09:01;;;;;;;4.13;3.60;;;10.10;78.90;;;;;;4999538;28;20044;-69
2024/01/29 09:11:27;;;;;;;4.65;4.25;;;10.20;79.00;;;;;;5012775;28;20045;-69
2024/01/29 09:13:52;;;;;;;4.13;3.80;;;10.20;79.00;;;;;;4998740;28;20049;-69
2024/01/29 09:16:18;;;;;;;3.60;3.30;;;10.20;79.00;;;;;;5010596;28;20046;-69
2024/01/29 09:18:44;;;;;;;4.47;4.07;;;10.20;79.00;;;;;;5011046;28;20095;-69
2024/01/29 09:21:09;;;;;;;4.38;3.47;;;10.20;79.10;;;;;;5033608;28;20040;-69
2024/01/29 09:23:37;;;;;;;5.00;3.75;;;10.20;79.80;;;;;;4983215;28;20038;-69
2024/01/29 09:26:02;;;;;;;5.25;3.95;;;10.20;79.10;;;;;;5004182;28;20116;-69
2024/01/29 09:28:28;;;;;;;4.28;3.88;;;10.20;79.20;;;;;;5009741;28;20466;-69
2024/01/29 09:30:54;;;;;;;4.07;3.50;;;10.20;79.20;;;;;;5032348;28;20049;-69
2024/01/29 09:33:19;;;;;;;3.83;3.45;;;10.20;79.20;;;;;;5009753;28;20049;-69
2024/01/29 09:35:46;;;;;;;3.90;3.50;;;10.20;79.20;;;;;;4996020;28;20188;-69
2024/01/29 09:38:13;;;;;;;5.30;3.83;;;10.30;79.40;;;;;;5010885;28;20052;-69
2024/01/29 09:40:39;;;;;;;4.40;4.00;;;10.20;79.30;;;;;;5012378;28;20041;-69
2024/01/29 09:43:05;;;;;;;4.50;3.92;;;10.20;79.40;;;;;;5015603;28;20041;-69
2024/01/29 09:45:31;;;;;;;4.00;3.60;;;10.20;79.50;;;;;;5010025;28;20539;-69
2024/01/29 09:47:56;;;;;;;5.18;3.80;;;10.30;79.60;;;;;;5004901;28;20067;-69
2024/01/29 09:50:23;;;;;;;5.05;3.53;;;10.20;79.60;;;;;;5012866;28;20048;-69
2024/01/29 09:52:48;;;;;;;4.47;4.07;;;10.20;79.60;;;;;;5015275;28;20041;-69
2024/01/29 09:55:14;;;;;;;5.22;4.28;;;10.30;79.80;;;;;;5013954;28;20128;-69
2024/01/29 09:57:39;;;;;;;4.47;4.07;;;10.30;79.70;;;;;;5013219;28;20060;-69
2024/01/29 10:00:06;;;;;;;4.28;3.88;;;10.30;79.80;;;;;;4995650;28;20052;-69
2024/01/29 10:02:33;;;;;;;4.35;3.95;;;10.30;79.80;;;;;;5013111;28;20043;-69
2024/01/29 10:04:59;;;;;;;4.85;4.45;;;10.30;79.90;;;;;;5014057;28;20060;-69
2024/01/29 10:07:24;;;;;;;5.65;4.35;;;10.30;80.00;;;;;;5010943;28;20204;-69
2024/01/29 10:09:51;;;;;;;4.78;3.72;;;10.30;80.10;;;;;;4976327;28;20048;-69
2024/01/29 10:12:23;;;;;;;4.35;3.95;;;10.30;80.40;;;;;;5013957;28;20045;-69
2024/01/29 10:14:49;;;;;;;4.15;3.75;;;10.30;80.10;;;;;;4982524;28;20522;-69
2024/01/29 10:17:14;;;;;;;4.47;4.07;;;10.30;80.10;;;;;;5029796;28;20132;-69
2024/01/29 10:19:43;;;;;;;5.05;4.45;;;10.30;80.10;;;;;;5011370;28;20037;-69
2024/01/29 10:22:12;;;;;;;4.50;4.10;;;10.30;80.80;;;;;;5046000;28;20041;-69
2024/01/29 10:24:38;;;;;;;5.18;3.92;;;10.30;80.10;;;;;;5013318;28;20566;-69
2024/01/29 10:27:09;;;;;;;5.35;4.65;;;10.40;80.20;;;;;;4998153;28;20069;-69
2024/01/29 10:29:47;;;;;;;6.45;4.75;;;10.40;80.20;;;;;;5023446;28;20396;-69
2024/01/29 10:32:14;;;;;;;4.60;4.20;;;10.40;80.20;;;;;;4979820;28;20519;-69
2024/01/29 10:34:39;;;;;;;5.45;4.40;;;10.40;80.20;;;;;;5013125;28;20128;-69
2024/01/29 10:37:05;;;;;;;5.55;4.28;;;10.40;80.20;;;;;;4996053;28;20124;-69
2024/01/29 10:39:31;;;;;;;4.07;3.70;;;10.40;80.30;;;;;;5013742;28;20488;-69
2024/01/29 10:41:56;;;;;;;5.70;4.57;;;10.40;80.20;;;;;;5012533;28;20034;-69
2024/01/29 10:44:22;;;;;;;4.88;4.38;;;10.40;80.20;;;;;;5013385;28;20475;-69
2024/01/29 10:46:48;;;;;;;4.88;4.25;;;10.40;80.20;;;;;;4996085;28;20037;-69
2024/01/29 10:49:13;;;;;;;5.07;4.20;;;10.40;80.50;;;;;;5014353;28;20049;-69
2024/01/29 10:51:39;;;;;;;4.97;4.30;;;10.40;80.20;;;;;;4978826;28;20033;-69
2024/01/29 10:54:05;;;;;;;4.00;3.70;;;10.40;80.20;;;;;;5013193;28;20088;-69
2024/01/29 10:56:31;;;;;;;4.97;3.67;;;10.50;80.20;;;;;;5012961;28;20037;-69
2024/01/29 10:58:58;;;;;;;5.03;3.60;;;10.40;80.10;;;;;;5010918;28;20096;-69
2024/01/29 11:01:24;;;;;;;4.10;3.70;;;10.40;80.20;;;;;;4995926;28;20539;-69
2024/01/29 11:03:50;;;;;;;5.55;4.20;;;10.50;80.20;;;;;;5012294;28;20382;-69
2024/01/29 11:06:30;;;;;;;4.85;4.43;;;10.50;80.20;;;;;;5009639;28;20048;-69
2024/01/29 11:08:58;;;;;;;4.47;4.07;;;10.50;80.30;;;;;;5004818;28;20116;-69
2024/01/29 11:11:25;;;;;;;4.10;3.78;;;10.50;80.30;;;;;;5012616;28;20107;-68
2024/01/29 11:13:50;;;;;;;4.45;4.05;;;10.50;80.30;;;;;;4995464;28;20426;-69
2024/01/29 11:16:16;;;;;;;3.72;3.35;;;10.50;80.20;;;;;;5013753;28;20383;-69
2024/01/29 11:18:42;;;;;;;5.10;4.22;;;10.50;80.30;;;;;;5023935;28;20038;-69
2024/01/29 11:21:11;;;;;;;6.03;4.70;;;10.50;81.10;;;;;;4975926;28;20036;-69
2024/01/29 11:23:55;;;;;;;5.40;4.68;;;10.50;80.30;;;;;;5011880;28;20044;-69
2024/01/29 11:26:23;;;;;;;4.95;4.47;;;10.50;80.50;;;;;;5012182;28;20041;-69
2024/01/29 11:29:01;;;;;;;4.72;4.32;;;10.50;80.40;;;;;;5012325;28;20053;-69
2024/01/29 11:31:38;;;;;;;4.93;4.38;;;10.50;80.60;;;;;;5036657;28;20111;-69
2024/01/29 11:34:05;;;;;;;6.07;4.53;;;10.50;80.60;;;;;;4996615;28;20099;-69
2024/01/29 11:36:32;;;;;;;3.75;3.42;;;10.50;80.70;;;;;;5012125;28;20080;-69
2024/01/29 11:39:04;;;;;;;4.68;4.00;;;10.50;80.70;;;;;;5012818;28;20029;-69
2024/01/29 11:41:31;;;;;;;5.20;4.70;;;10.50;80.80;;;;;;5009224;28;20045;-69
2024/01/29 11:43:57;;;;;;;6.00;4.40;;;10.60;80.90;;;;;;4991919;28;20034;-69
2024/01/29 11:46:23;;;;;;;4.65;4.25;;;10.60;80.90;;;;;;4995365;28;20045;-69
2024/01/29 11:48:49;;;;;;;6.05;4.93;;;10.60;80.90;;;;;;5013240;28;20045;-69
2024/01/29 11:51:14;;;;;;;4.68;4.18;;;10.60;80.90;;;;;;4992698;28;20053;-69
2024/01/29 11:53:40;;;;;;;4.97;4.45;;;10.60;80.90;;;;;;5004093;28;20046;-69
2024/01/29 11:56:06;;;;;;;4.45;3.78;;;10.60;80.90;;;;;;5013907;28;20068;-69
2024/01/29 11:58:31;;;;;;;5.28;4.88;;;10.60;81.00;;;;;;5011506;28;20484;-69
2024/01/29 12:00:57;;;;;;;5.40;5.00;;;10.60;81.10;;;;;;4995327;28;20076;-69
2024/01/29 12:03:24;;;;;;;5.25;4.75;;;10.60;81.10;;;;;;5013223;28;20076;-69
2024/01/29 12:05:51;;;;;;;4.93;4.53;;;10.60;81.10;;;;;;5008990;28;20041;-69
2024/01/29 12:08:18;;;;;;;4.57;4.18;;;10.60;81.20;;;;;;4994301;28;20046;-69
2024/01/29 12:10:45;;;;;;;5.20;4.22;;;10.60;81.20;;;;;;5011339;28;20072;-69
2024/01/29 12:13:14;;;;;;;4.95;3.83;;;10.70;81.20;;;;;;4994493;28;20120;-69
2024/01/29 12:15:40;;;;;;;4.97;3.63;;;10.70;81.10;;;;;;5026859;28;20528;-69
2024/01/29 12:18:09;;;;;;;6.10;3.50;;;10.70;81.10;;;;;;4987619;28;20049;-69
2024/01/29 12:20:36;;;;;;;3.17;2.90;;;10.70;81.10;;;;;;4982281;28;20037;-69
2024/01/29 12:23:02;;;;;;;4.30;3.90;;;10.70;81.20;;;;;;5020927;28;20556;-69
2024/01/29 12:25:28;;;;;;;4.57;4.20;;;10.70;81.20;;;;;;5011817;28;20042;-69
2024/01/29 12:28:02;;;;;;;3.78;3.25;;;10.70;81.20;;;;;;5015264;28;20052;-69
2024/01/29 12:30:28;;;;;;;3.67;3.25;;;10.70;81.20;;;;;;5016642;28;20568;-69
2024/01/29 12:32:54;;;;;;;4.10;3.72;;;10.70;81.20;;;;;;4998268;28;20132;-69
2024/01/29 12:35:28;;;;;;;4.20;3.40;;;10.70;81.20;;;;;;5028731;28;20080;-69
2024/01/29 12:38:07;;;;;;;4.18;3.72;;;10.80;81.30;;;;;;5031299;28;20049;-69
2024/01/29 12:40:33;;;;;;;3.55;2.88;;;10.80;81.20;;;;;;4984318;28;20040;-69
2024/01/29 12:43:03;;;;;;;3.65;3.28;;;10.80;81.30;;;;;;5015843;28;20189;-69